VAM | Vabird-VBD

Virtual Vabird! Aerolínea Virtual de habla hispana, desde 2011




 INFORMACIÓN METAR y TAF
METAR FOR SVMI
ADDS - METARS form results

(0205 UTC 22 June 2021)
Data provider http://aviationweather.gov/metar/data/
 
METAR text: SVMI 220202Z AUTO 08009KT NCD 26/24 Q1016
Conditions at: SVMI (CARACAS/S. BOLIV, VE) observed 0202 UTC 22 June 2021
Temperature: 26.0°C (79°F)
Dewpoint: 24.0°C (75°F) [RH = 89%]
Pressure (altimeter): 30.00 inches Hg (1016.0 mb)
Winds: from the E (80 degrees) at 10 MPH (9 knots; 4.6 m/s)
Visibility: missing
Ceiling: at least 12,000 feet AGL
Clouds: sky clear below 12,000 feet AGL
Weather: no significant weather observed at this time

METAR text: SVMI 220200Z 02002KT 9999 SCT016 24/23 Q1012
Conditions at: SVMI (CARACAS/S. BOLIV, VE) observed 0200 UTC 22 June 2021
Temperature: 24.0°C (75°F)
Dewpoint: 23.0°C (73°F) [RH = 94%]
Pressure (altimeter): 29.88 inches Hg (1012.0 mb)
Winds: from the NNE (20 degrees) at 2 MPH (2 knots; 1.0 m/s)
Visibility: 6 or more miles (10+ km)
Ceiling: at least 12,000 feet AGL
Clouds: scattered clouds at 1600 feet AGL
Weather: no significant weather observed at this time

Forecast for: SVMI (CARACAS/S. BOLIV, VE)
Text: TAF SVMI 212200Z 2200/2300 15007KT 9999 SCT016 TX31/2218Z TN25/2207Z
Forecast period: 0000 UTC 22 June 2021 to 0000 UTC 23 June 2021
Forecast type: FROM: standard forecast or significant change
Winds: from the SSE (150 degrees) at 8 MPH (7 knots; 3.6 m/s)
Visibility: 6 or more miles (10+ km)
Ceiling: at least 12,000 feet AGL
Clouds: scattered clouds at 1600 feet AGL
Weather: no significant weather forecast for this period
Text: BECMG 2200/2204 09014KT 9999 BKN013
Forecast period: 0000 UTC 22 June 2021 to 0000 UTC 23 June 2021
Forecast type: BECOMING: Conditions expected to become as follows by 0400 UTC 22 June 2021
Winds: from the E (90 degrees) at 16 MPH (14 knots; 7.2 m/s)
Visibility: 6 or more miles (10+ km)
Ceiling: 1300 feet AGL
Clouds: broken clouds at 1300 feet AGL
Weather: no significant weather forecast for this period

 MAPA DE AEROPUERTO

 INFORMACIÓN DE PISTA